Arthurdale, West Virginia
Current Conditions -  °F | °C
As of 1:53 AM on Saturday 25 Oct 2014 (Local Time) from KMGW Reporting Station
Overcast Overcast  
Wind Chill: 40°   Ceiling: 4400
Heat Index: 43°   Visibility: 10mi
Dew Point: 38°   Wind: 5mph
Humidity: 82%   Direction: 190°S
Pressure: 30.03"   Gusts: NA
Location:  39.49°N, 79.82°W
Report Text: KMGW 250553Z AUTO 19004KT 10SM BKN044 OVC060 06/03 A3003 RMK AO2 SLP172 T00610033 10117 20056 58006 TSNO
Loading
Personal Weather Stations






























Interactive Weather Map
Tropical Storm Tracking
New forecast layout! Learn more

10-Day Weather Forecast

Advertisements
Track Severe Weather on mobile